createdAt,value
2024-01-05T00:01:40.425Z,0.28
2024-01-05T00:04:07.250Z,0.41
2024-01-05T00:06:39.079Z,0.44
2024-01-05T00:09:07.326Z,0.35
2024-01-05T00:11:34.138Z,0.49
2024-01-05T00:14:00.878Z,0.54
2024-01-05T00:16:27.606Z,0.39
2024-01-05T00:18:54.439Z,0.42
2024-01-05T00:21:26.493Z,0.41
2024-01-05T00:23:56.733Z,0.43
2024-01-05T00:26:23.729Z,0.26
2024-01-05T00:28:54.585Z,-0.13
2024-01-05T00:31:21.457Z,0.08
2024-01-05T00:33:48.419Z,-0.02
2024-01-05T00:36:15.400Z,0.25
2024-01-05T00:38:48.458Z,0.24
2024-01-05T00:41:15.594Z,0.19
2024-01-05T00:43:43.505Z,0.18
2024-01-05T00:46:10.709Z,-0.05
2024-01-05T00:48:38.028Z,0.01
2024-01-05T00:51:05.133Z,0.07
2024-01-05T00:53:31.875Z,0.15
2024-01-05T00:55:58.556Z,0.24
2024-01-05T00:58:25.273Z,0.09
2024-01-05T01:00:52.103Z,0.31
2024-01-05T01:03:18.986Z,0.38
2024-01-05T01:05:46.783Z,0.39
2024-01-05T01:08:16.313Z,0.19
2024-01-05T01:10:43.041Z,0.23
2024-01-05T01:13:11.486Z,0.10
2024-01-05T01:15:38.227Z,0.20
2024-01-05T01:18:05.668Z,0.18
2024-01-05T01:20:32.546Z,0.07
2024-01-05T01:22:59.230Z,-0.06
2024-01-05T01:25:25.996Z,0.04
2024-01-05T01:27:52.709Z,-0.13
2024-01-05T01:30:19.556Z,-0.14
2024-01-05T01:32:46.420Z,-0.16
2024-01-05T01:35:13.128Z,-0.16
2024-01-05T01:37:39.893Z,-0.20
2024-01-05T01:40:07.381Z,-0.15
2024-01-05T01:42:34.353Z,-0.03
2024-01-05T01:45:01.753Z,-0.27
2024-01-05T01:47:29.632Z,-0.21
2024-01-05T01:49:58.117Z,-0.17
2024-01-05T01:52:25.817Z,-0.14
2024-01-05T01:54:52.782Z,-0.03
2024-01-05T01:57:20.223Z,0.04
2024-01-05T01:59:47.597Z,-0.09
2024-01-05T02:02:14.987Z,-0.12
2024-01-05T02:04:42.767Z,-0.21
2024-01-05T02:07:09.829Z,-0.09
2024-01-05T02:09:36.738Z,-0.01
2024-01-05T02:12:03.920Z,0.00
2024-01-05T02:14:30.791Z,-0.05
2024-01-05T02:16:57.569Z,-0.22
2024-01-05T02:19:25.719Z,-0.07
2024-01-05T02:21:56.174Z,-0.10
2024-01-05T02:24:23.107Z,0.07
2024-01-05T02:26:50.442Z,0.02
2024-01-05T02:29:23.469Z,-0.11
2024-01-05T02:31:51.862Z,-0.08
2024-01-05T02:34:18.887Z,-0.11
2024-01-05T02:36:45.965Z,-0.48
2024-01-05T02:39:13.753Z,-0.35
2024-01-05T02:41:40.529Z,-0.37
2024-01-05T02:44:07.228Z,-0.38
2024-01-05T02:46:36.607Z,-0.47
2024-01-05T02:49:03.624Z,-0.61
2024-01-05T02:51:30.657Z,-0.61
2024-01-05T02:53:57.619Z,-0.62
2024-01-05T02:56:24.534Z,-0.61
2024-01-05T02:58:54.631Z,-0.55
2024-01-05T03:01:21.513Z,-0.63
2024-01-05T03:03:51.558Z,-0.61
2024-01-05T03:06:20.409Z,-0.56
2024-01-05T03:08:47.760Z,-0.56
2024-01-05T03:11:14.599Z,-0.75
2024-01-05T03:13:41.556Z,-0.68
2024-01-05T03:16:08.814Z,-0.77
2024-01-05T03:18:35.675Z,-0.71
2024-01-05T03:21:02.777Z,-0.56
2024-01-05T03:23:29.549Z,-0.77
2024-01-05T03:25:58.153Z,-0.70
2024-01-05T03:28:25.769Z,-0.63
2024-01-05T03:30:53.365Z,-0.58
2024-01-05T03:33:23.104Z,-0.56
2024-01-05T03:35:49.937Z,-0.51
2024-01-05T03:38:16.664Z,-0.52
2024-01-05T03:40:43.670Z,-0.44
2024-01-05T03:43:10.545Z,-0.56
2024-01-05T03:45:37.849Z,-0.75
2024-01-05T03:48:05.585Z,-0.62
2024-01-05T03:50:36.451Z,-0.58
2024-01-05T03:53:03.995Z,-0.58
2024-01-05T03:55:30.686Z,-0.63
2024-01-05T03:57:57.381Z,-0.76
2024-01-05T04:00:24.092Z,-0.93
2024-01-05T04:02:50.868Z,-0.95
2024-01-05T04:05:17.713Z,-1.19
2024-01-05T04:07:45.505Z,-1.14
2024-01-05T04:10:12.362Z,-1.02
2024-01-05T04:12:39.208Z,-0.94
2024-01-05T04:15:06.753Z,-0.93
2024-01-05T04:17:33.501Z,-1.14
2024-01-05T04:20:00.260Z,-1.24
2024-01-05T04:22:32.362Z,-1.20
2024-01-05T04:25:00.095Z,-1.15
2024-01-05T04:27:26.843Z,-1.13
2024-01-05T04:29:53.632Z,-1.06
2024-01-05T04:32:20.376Z,-1.00
2024-01-05T04:34:47.191Z,-0.98
2024-01-05T04:37:15.324Z,-0.88
2024-01-05T04:39:44.475Z,-0.87
2024-01-05T04:42:16.025Z,-1.13
2024-01-05T04:44:43.725Z,-1.38
2024-01-05T04:47:10.427Z,-1.21
2024-01-05T04:49:37.187Z,-1.31
2024-01-05T04:52:04.132Z,-1.21
2024-01-05T04:54:30.954Z,-1.19
2024-01-05T04:56:59.796Z,-1.24
2024-01-05T04:59:29.344Z,-1.02
2024-01-05T05:01:56.087Z,-1.33
2024-01-05T05:04:22.765Z,-1.15
2024-01-05T05:06:49.484Z,-1.25
2024-01-05T05:09:16.176Z,-1.38
2024-01-05T05:11:43.152Z,-1.41
2024-01-05T05:14:10.112Z,-1.51
2024-01-05T05:16:36.875Z,-1.94
2024-01-05T05:19:05.591Z,-1.74
2024-01-05T05:21:33.235Z,-1.54
2024-01-05T05:24:00.104Z,-1.52
2024-01-05T05:26:26.981Z,-1.63
2024-01-05T05:28:54.026Z,-1.76
2024-01-05T05:31:20.887Z,-1.53
2024-01-05T05:33:51.172Z,-1.41
2024-01-05T05:36:18.268Z,-1.40
2024-01-05T05:38:46.193Z,-1.19
2024-01-05T05:41:13.456Z,-1.33
2024-01-05T05:43:41.495Z,-1.34
2024-01-05T05:46:08.256Z,-1.36
2024-01-05T05:48:36.605Z,-1.30
2024-01-05T05:51:05.525Z,-1.49
2024-01-05T05:53:32.695Z,-1.43
2024-01-05T05:55:59.389Z,-1.50
2024-01-05T05:58:27.502Z,-1.49
2024-01-05T06:00:54.358Z,-1.43
2024-01-05T06:03:24.411Z,-1.32
2024-01-05T06:05:51.458Z,-1.35
2024-01-05T06:08:18.158Z,-1.38
2024-01-05T06:10:44.998Z,-1.38
2024-01-05T06:13:12.061Z,-1.35
2024-01-05T06:15:38.978Z,-1.58
2024-01-05T06:18:05.913Z,-1.45
2024-01-05T06:20:32.743Z,-1.61
2024-01-05T06:22:59.514Z,-1.60
2024-01-05T06:25:26.332Z,-1.33
2024-01-05T06:27:54.503Z,-1.18
2024-01-05T06:30:21.430Z,-1.27
2024-01-05T06:32:48.238Z,-1.23
2024-01-05T06:35:15.049Z,-1.27
2024-01-05T06:37:41.790Z,-1.02
2024-01-05T06:40:09.300Z,-0.92
2024-01-05T06:42:36.026Z,-0.82
2024-01-05T06:45:02.933Z,-0.85
2024-01-05T06:47:29.735Z,-0.93
2024-01-05T06:49:56.750Z,-0.79
2024-01-05T06:52:23.543Z,-0.42
2024-01-05T06:54:50.260Z,0.25
2024-01-05T06:57:17.038Z,1.09
2024-01-05T06:59:43.719Z,2.19
2024-01-05T07:02:10.464Z,3.12
2024-01-05T07:04:39.757Z,4.42
2024-01-05T07:07:06.404Z,5.57
2024-01-05T07:09:33.300Z,6.17
2024-01-05T07:12:00.951Z,7.66
2024-01-05T07:14:29.013Z,8.10
2024-01-05T07:16:57.350Z,8.49
2024-01-05T07:19:24.260Z,9.03
2024-01-05T07:21:51.291Z,9.62
2024-01-05T07:24:20.024Z,9.91
2024-01-05T07:26:47.071Z,10.16
2024-01-05T07:29:13.810Z,10.65
2024-01-05T07:31:40.802Z,11.01
2024-01-05T07:34:08.592Z,10.64
2024-01-05T07:36:36.483Z,11.06
2024-01-05T07:39:04.671Z,10.86
2024-01-05T07:41:31.436Z,10.43
2024-01-05T07:43:58.576Z,10.78
2024-01-05T07:46:28.361Z,10.98
2024-01-05T07:48:56.102Z,11.08
2024-01-05T07:51:23.596Z,11.39
2024-01-05T07:53:50.459Z,11.83
2024-01-05T07:56:18.811Z,12.53
2024-01-05T07:58:46.103Z,12.08
2024-01-05T08:01:19.561Z,12.66
2024-01-05T08:03:47.193Z,12.96
2024-01-05T08:06:17.416Z,13.49
2024-01-05T08:08:48.839Z,13.61
2024-01-05T08:11:16.022Z,13.89
2024-01-05T08:13:44.057Z,14.10
2024-01-05T08:16:11.496Z,14.14
2024-01-05T08:18:40.625Z,14.22
2024-01-05T08:21:07.426Z,14.23
2024-01-05T08:23:34.874Z,14.91
2024-01-05T08:26:04.871Z,15.07
2024-01-05T08:28:31.870Z,14.72
2024-01-05T08:30:59.579Z,13.71
2024-01-05T08:33:26.770Z,13.20
2024-01-05T08:35:53.660Z,12.76
2024-01-05T08:38:20.481Z,13.18
2024-01-05T08:40:47.465Z,13.22
2024-01-05T08:43:14.244Z,12.72
2024-01-05T08:45:41.130Z,13.47
2024-01-05T08:48:08.067Z,13.50
2024-01-05T08:50:36.321Z,14.16
2024-01-05T08:53:03.377Z,14.40
2024-01-05T08:55:30.433Z,14.05
2024-01-05T08:57:58.492Z,13.91
2024-01-05T09:00:26.294Z,13.52
2024-01-05T09:02:53.376Z,13.07
2024-01-05T09:05:20.598Z,12.82
2024-01-05T09:07:48.978Z,12.60
2024-01-05T09:10:16.015Z,12.81
2024-01-05T09:12:42.988Z,13.92
2024-01-05T09:15:10.246Z,14.37
2024-01-05T09:17:39.146Z,14.80
2024-01-05T09:20:06.689Z,15.43
2024-01-05T09:22:35.792Z,15.77
2024-01-05T09:25:02.515Z,15.09
2024-01-05T09:27:29.575Z,15.10
2024-01-05T09:29:56.345Z,14.12
2024-01-05T09:32:23.717Z,12.50
2024-01-05T09:34:50.986Z,12.24
2024-01-05T09:37:17.794Z,12.00
2024-01-05T09:39:44.527Z,12.77
2024-01-05T09:42:11.582Z,13.21
2024-01-05T09:44:38.581Z,13.91
2024-01-05T09:47:05.858Z,13.99
2024-01-05T09:49:36.901Z,15.00
2024-01-05T09:52:04.123Z,15.12
2024-01-05T09:54:31.052Z,16.06
2024-01-05T09:56:58.023Z,16.13
2024-01-05T09:59:26.939Z,16.68
2024-01-05T10:01:55.221Z,16.32
2024-01-05T10:04:22.061Z,16.70
2024-01-05T10:06:59.983Z,16.46
2024-01-05T10:09:26.752Z,15.85
2024-01-05T10:11:53.482Z,15.31
2024-01-05T10:14:26.327Z,14.88
2024-01-05T10:17:08.723Z,15.21
2024-01-05T10:19:36.550Z,14.85
2024-01-05T10:22:16.066Z,15.65
2024-01-05T10:24:43.686Z,14.66
2024-01-05T10:27:12.856Z,14.28
2024-01-05T10:29:44.999Z,14.33
2024-01-05T10:32:21.876Z,14.43
2024-01-05T10:34:51.965Z,14.05
2024-01-05T10:37:21.223Z,14.29
2024-01-05T10:39:54.206Z,14.58
2024-01-05T10:42:30.903Z,14.84
2024-01-05T10:44:59.854Z,14.70
2024-01-05T10:47:28.458Z,15.13
2024-01-05T10:49:57.847Z,15.67
2024-01-05T10:52:32.591Z,14.89
2024-01-05T10:55:04.434Z,16.14
2024-01-05T10:57:33.255Z,15.85
2024-01-05T11:00:00.694Z,16.19
2024-01-05T11:03:05.662Z,16.73
2024-01-05T11:05:32.812Z,16.48
2024-01-05T11:08:02.234Z,15.47
2024-01-05T11:10:40.600Z,16.48
2024-01-05T11:13:48.879Z,16.87
2024-01-05T11:16:33.345Z,17.31
2024-01-05T11:19:00.254Z,17.79
2024-01-05T11:21:56.494Z,17.68
2024-01-05T11:24:25.263Z,18.41
2024-01-05T11:26:53.444Z,17.58
2024-01-05T11:29:52.654Z,18.70
2024-01-05T11:32:46.782Z,17.90
2024-01-05T11:35:22.472Z,16.27
2024-01-05T11:37:49.922Z,16.24
2024-01-05T11:40:37.312Z,16.17
2024-01-05T11:43:30.175Z,16.73
2024-01-05T11:45:57.347Z,17.04
2024-01-05T11:48:37.378Z,17.83
2024-01-05T11:51:08.373Z,17.67
2024-01-05T11:53:35.291Z,17.50
2024-01-05T11:56:04.628Z,16.88
2024-01-05T11:58:33.452Z,17.24
2024-01-05T12:01:01.516Z,17.55
2024-01-05T12:03:28.810Z,17.05
2024-01-05T12:06:01.932Z,17.29
2024-01-05T12:08:29.379Z,16.86
2024-01-05T12:11:04.145Z,17.53
2024-01-05T12:13:34.256Z,15.53
2024-01-05T12:16:03.926Z,14.81
2024-01-05T12:18:37.770Z,14.91
2024-01-05T12:21:07.961Z,15.02
2024-01-05T12:23:35.762Z,15.75
2024-01-05T12:26:04.972Z,14.80
2024-01-05T12:28:36.093Z,14.61
2024-01-05T12:31:04.588Z,14.35
2024-01-05T12:33:34.381Z,14.49
2024-01-05T12:36:01.192Z,14.33
2024-01-05T12:38:34.398Z,14.19
2024-01-05T12:41:18.719Z,13.82
2024-01-05T12:43:51.463Z,13.49
2024-01-05T12:46:20.195Z,13.96
2024-01-05T12:48:47.208Z,13.80
2024-01-05T12:51:21.704Z,14.19
2024-01-05T12:53:58.717Z,15.07
2024-01-05T12:56:27.966Z,14.69
2024-01-05T12:58:54.681Z,13.49
2024-01-05T13:01:23.675Z,14.03
2024-01-05T13:03:57.261Z,14.03
2024-01-05T13:06:27.150Z,13.88
2024-01-05T13:08:54.441Z,12.93
2024-01-05T13:11:22.238Z,12.38
2024-01-05T13:13:54.124Z,12.45
2024-01-05T13:16:21.489Z,12.49
2024-01-05T13:18:49.003Z,12.38
2024-01-05T13:21:16.496Z,11.88
2024-01-05T13:23:45.736Z,11.70
2024-01-05T13:26:12.627Z,11.41
2024-01-05T13:28:41.644Z,11.57
2024-01-05T13:31:08.878Z,11.72
2024-01-05T13:33:36.368Z,11.67
2024-01-05T13:36:03.615Z,11.82
2024-01-05T13:38:30.560Z,11.80
2024-01-05T13:40:57.540Z,11.75
2024-01-05T13:43:26.286Z,11.15
2024-01-05T13:45:55.807Z,11.21
2024-01-05T13:48:23.178Z,10.88
2024-01-05T13:50:50.666Z,10.68
2024-01-05T13:53:17.538Z,10.48
2024-01-05T13:55:44.513Z,10.72
2024-01-05T13:58:11.272Z,10.75
2024-01-05T14:00:38.149Z,10.68
2024-01-05T14:03:05.610Z,10.26
2024-01-05T14:05:32.660Z,10.24
2024-01-05T14:08:00.587Z,10.34
2024-01-05T14:10:28.176Z,10.14
2024-01-05T14:12:56.935Z,10.13
2024-01-05T14:15:26.143Z,10.07
2024-01-05T14:17:53.082Z,9.98
2024-01-05T14:20:20.264Z,9.90
2024-01-05T14:22:47.137Z,9.77
2024-01-05T14:25:14.015Z,9.73
2024-01-05T14:27:41.769Z,9.67
2024-01-05T14:30:09.666Z,9.66
2024-01-05T14:32:36.601Z,9.49
2024-01-05T14:35:06.865Z,9.36
2024-01-05T14:37:34.209Z,9.32
2024-01-05T14:40:01.076Z,9.31
2024-01-05T14:42:27.750Z,9.29
2024-01-05T14:44:55.152Z,9.19
2024-01-05T14:47:22.037Z,9.13
2024-01-05T14:49:49.475Z,8.85
2024-01-05T14:52:16.334Z,9.00
2024-01-05T14:54:43.582Z,8.66
2024-01-05T14:57:10.332Z,8.65
2024-01-05T14:59:37.796Z,8.46
2024-01-05T15:02:04.531Z,8.37
2024-01-05T15:04:32.874Z,8.31
2024-01-05T15:07:01.855Z,8.24
2024-01-05T15:09:28.984Z,8.11
2024-01-05T15:11:55.720Z,8.01
2024-01-05T15:14:22.523Z,7.71
2024-01-05T15:16:51.514Z,7.69
2024-01-05T15:19:19.632Z,7.34
2024-01-05T15:21:46.593Z,7.24
2024-01-05T15:24:13.726Z,7.01
2024-01-05T15:26:47.090Z,6.82
2024-01-05T15:29:15.069Z,6.90
2024-01-05T15:31:42.056Z,6.50
2024-01-05T15:34:09.181Z,6.50
2024-01-05T15:36:36.214Z,6.49
2024-01-05T15:39:03.414Z,6.45
2024-01-05T15:41:30.257Z,6.44
2024-01-05T15:43:58.688Z,6.41
2024-01-05T15:46:28.164Z,6.38
2024-01-05T15:48:56.515Z,6.30
2024-01-05T15:51:26.660Z,6.19
2024-01-05T15:53:56.024Z,6.21
2024-01-05T15:56:24.395Z,6.33
2024-01-05T15:58:53.477Z,6.30
2024-01-05T16:01:20.333Z,6.00
2024-01-05T16:03:48.616Z,5.95
2024-01-05T16:06:20.298Z,6.11
2024-01-05T16:08:49.589Z,5.87
2024-01-05T16:11:17.487Z,6.06
2024-01-05T16:13:44.710Z,6.15
2024-01-05T16:16:16.100Z,5.90
2024-01-05T16:18:45.604Z,5.89
2024-01-05T16:21:13.214Z,5.95
2024-01-05T16:23:41.259Z,6.04
2024-01-05T16:26:08.374Z,5.93
2024-01-05T16:28:35.129Z,5.93
2024-01-05T16:31:01.976Z,5.78
2024-01-05T16:33:31.037Z,5.41
2024-01-05T16:35:58.504Z,5.27
2024-01-05T16:38:25.321Z,5.38
2024-01-05T16:40:56.109Z,5.41
2024-01-05T16:43:22.890Z,5.53
2024-01-05T16:45:49.776Z,5.42
2024-01-05T16:48:17.633Z,5.54
2024-01-05T16:50:45.867Z,5.43
2024-01-05T16:53:12.793Z,4.99
2024-01-05T16:55:39.514Z,5.26
2024-01-05T16:58:09.120Z,5.32
2024-01-05T17:00:36.205Z,5.07
2024-01-05T17:03:04.688Z,5.20
2024-01-05T17:05:31.770Z,5.29
2024-01-05T17:07:58.609Z,5.22
2024-01-05T17:10:25.294Z,5.12
2024-01-05T17:12:52.830Z,5.04
2024-01-05T17:15:21.231Z,5.09
2024-01-05T17:17:48.471Z,4.96
2024-01-05T17:20:22.153Z,5.11
2024-01-05T17:22:52.689Z,5.17
2024-01-05T17:25:19.386Z,5.20
2024-01-05T17:27:47.172Z,5.18
2024-01-05T17:30:17.071Z,5.19
2024-01-05T17:32:48.714Z,4.91
2024-01-05T17:35:15.877Z,4.91
2024-01-05T17:37:42.666Z,4.78
2024-01-05T17:40:09.894Z,4.93
2024-01-05T17:42:36.626Z,4.94
2024-01-05T17:45:04.014Z,4.90
2024-01-05T17:47:31.582Z,4.93
2024-01-05T17:49:59.413Z,5.00
2024-01-05T17:52:27.235Z,4.63
2024-01-05T17:54:54.609Z,4.61
2024-01-05T17:57:25.242Z,4.78
2024-01-05T17:59:52.914Z,4.82
2024-01-05T18:02:20.036Z,4.69
2024-01-05T18:04:46.943Z,4.71
2024-01-05T18:07:18.474Z,4.60
2024-01-05T18:09:46.527Z,4.67
2024-01-05T18:12:13.411Z,4.58
2024-01-05T18:14:40.406Z,4.41
2024-01-05T18:17:07.398Z,4.41
2024-01-05T18:19:34.729Z,4.15
2024-01-05T18:22:02.232Z,4.24
2024-01-05T18:24:29.828Z,4.28
2024-01-05T18:26:56.939Z,4.32
2024-01-05T18:29:29.160Z,4.29
2024-01-05T18:31:58.265Z,4.17
2024-01-05T18:34:26.956Z,4.19
2024-01-05T18:36:54.400Z,3.74
2024-01-05T18:39:21.672Z,3.57
2024-01-05T18:41:48.723Z,3.32
2024-01-05T18:44:17.553Z,3.41
2024-01-05T18:46:46.394Z,3.27
2024-01-05T18:49:17.332Z,3.35
2024-01-05T18:51:44.088Z,3.40
2024-01-05T18:54:10.862Z,3.08
2024-01-05T18:56:39.415Z,3.03
2024-01-05T18:59:06.420Z,2.93
2024-01-05T19:01:33.436Z,2.96
2024-01-05T19:04:00.662Z,3.06
2024-01-05T19:06:28.284Z,3.21
2024-01-05T19:08:55.152Z,3.13
2024-01-05T19:11:22.337Z,2.98
2024-01-05T19:13:49.301Z,3.02
2024-01-05T19:16:20.999Z,3.22
2024-01-05T19:18:48.096Z,3.13
2024-01-05T19:21:15.852Z,3.05
2024-01-05T19:23:43.343Z,3.23
2024-01-05T19:26:14.368Z,3.33
2024-01-05T19:28:41.134Z,3.30
2024-01-05T19:31:08.405Z,3.31
2024-01-05T19:33:37.470Z,3.34
2024-01-05T19:36:13.942Z,2.96
2024-01-05T19:38:43.348Z,3.09
2024-01-05T19:41:13.173Z,3.18
2024-01-05T19:43:40.462Z,3.24
2024-01-05T19:46:08.543Z,3.18
2024-01-05T19:48:36.804Z,3.27
2024-01-05T19:51:04.966Z,3.04
2024-01-05T19:53:33.309Z,2.91
2024-01-05T19:56:01.225Z,3.19
2024-01-05T19:58:27.979Z,2.93
2024-01-05T20:00:55.329Z,2.99
2024-01-05T20:03:23.344Z,3.01
2024-01-05T20:05:52.318Z,2.76
2024-01-05T20:08:19.142Z,2.85
2024-01-05T20:10:45.914Z,2.97
2024-01-05T20:13:14.107Z,3.03
2024-01-05T20:15:42.197Z,2.99
2024-01-05T20:18:09.277Z,2.85
2024-01-05T20:20:36.544Z,2.94
2024-01-05T20:23:03.529Z,2.73
2024-01-05T20:25:31.599Z,2.86
2024-01-05T20:27:58.342Z,2.43
2024-01-05T20:30:27.743Z,2.63
2024-01-05T20:32:56.773Z,2.81
2024-01-05T20:35:23.475Z,2.80
2024-01-05T20:37:51.832Z,3.05
2024-01-05T20:40:19.345Z,2.56
2024-01-05T20:42:47.216Z,2.92
2024-01-05T20:45:14.907Z,2.90
2024-01-05T20:47:43.105Z,2.71
2024-01-05T20:50:10.595Z,2.81
2024-01-05T20:52:37.467Z,3.01
2024-01-05T20:55:04.439Z,2.85
2024-01-05T20:57:32.742Z,2.90
2024-01-05T21:00:00.615Z,3.01
2024-01-05T21:02:27.438Z,2.98
2024-01-05T21:04:54.569Z,3.03
2024-01-05T21:07:22.921Z,2.98
2024-01-05T21:09:49.971Z,2.90
2024-01-05T21:12:16.924Z,2.81
2024-01-05T21:14:44.205Z,2.63
2024-01-05T21:17:10.947Z,2.67
2024-01-05T21:19:41.360Z,2.31
2024-01-05T21:22:08.452Z,2.23
2024-01-05T21:24:42.830Z,2.23
2024-01-05T21:27:13.136Z,2.13
2024-01-05T21:29:42.918Z,2.31
2024-01-05T21:32:09.929Z,2.45
2024-01-05T21:34:41.648Z,2.47
2024-01-05T21:37:08.912Z,2.46
2024-01-05T21:39:36.132Z,2.40
2024-01-05T21:42:03.604Z,2.66
2024-01-05T21:44:30.311Z,2.46
2024-01-05T21:46:59.460Z,2.36
2024-01-05T21:49:27.039Z,2.41
2024-01-05T21:51:55.222Z,2.48
2024-01-05T21:54:22.545Z,2.42
2024-01-05T21:56:49.492Z,2.34
2024-01-05T21:59:16.271Z,2.66
2024-01-05T22:01:47.235Z,2.87
2024-01-05T22:04:14.644Z,3.38
2024-01-05T22:06:41.693Z,3.73
2024-01-05T22:09:12.592Z,3.70
2024-01-05T22:11:44.114Z,3.91
2024-01-05T22:14:14.614Z,3.87
2024-01-05T22:16:42.127Z,4.50
2024-01-05T22:19:11.624Z,4.64
2024-01-05T22:21:38.508Z,4.74
2024-01-05T22:24:05.884Z,4.91
2024-01-05T22:26:35.991Z,5.05
2024-01-05T22:29:06.784Z,4.86
2024-01-05T22:31:34.482Z,5.07
2024-01-05T22:34:01.645Z,5.39
2024-01-05T22:36:28.635Z,5.80
2024-01-05T22:38:55.434Z,5.73
2024-01-05T22:41:23.987Z,5.77
2024-01-05T22:43:53.094Z,5.48
2024-01-05T22:46:21.969Z,5.22
2024-01-05T22:48:49.006Z,5.07
2024-01-05T22:51:30.707Z,5.12
2024-01-05T22:53:57.556Z,5.10
2024-01-05T22:56:24.408Z,4.80
2024-01-05T22:58:51.567Z,4.75
2024-01-05T23:01:24.017Z,4.95
2024-01-05T23:03:54.842Z,5.43
2024-01-05T23:06:26.622Z,5.32
2024-01-05T23:08:55.887Z,4.98
2024-01-05T23:11:24.115Z,4.88
2024-01-05T23:13:50.886Z,4.80
2024-01-05T23:16:23.723Z,4.85
2024-01-05T23:18:50.570Z,4.73
2024-01-05T23:21:17.522Z,4.46
2024-01-05T23:23:44.272Z,4.36
2024-01-05T23:26:18.281Z,4.25
2024-01-05T23:28:45.326Z,4.44
2024-01-05T23:31:12.318Z,4.65
2024-01-05T23:33:39.235Z,4.47
2024-01-05T23:36:06.354Z,4.33
2024-01-05T23:38:33.385Z,4.12
2024-01-05T23:41:00.374Z,4.19
2024-01-05T23:43:27.743Z,4.25
2024-01-05T23:45:54.558Z,3.74
2024-01-05T23:48:21.480Z,3.79
2024-01-05T23:50:48.364Z,4.54
2024-01-05T23:53:15.053Z,4.19
2024-01-05T23:55:42.592Z,4.26
2024-01-05T23:58:10.242Z,3.97
